Date,TemperatureHighF,TemperatureAvgF,TemperatureLowF,DewpointHighF,DewpointAvgF,DewpointLowF,HumidityHigh,HumidityAvg,HumidityLow,PressureMaxIn,PressureMinIn,WindSpeedMaxMPH,WindSpeedAvgMPH,GustSpeedMaxMPH,PrecipitationSumIn
2013-4-13,-200.0,0.0,200.0,-99.9,-99.9,-99.9,0,0,100,0.00,40.00,0,-999,0,0.00
2013-4-16,71.6,53.5,46.4,55.2,31.5,-99.9,72,46,37,29.98,29.91,7,-25,0,0.16
2013-4-17,44.8,40.3,38.3,41.8,38.1,31.1,99,92,60,30.01,29.56,11,6,0,1.21
2013-4-18,53.4,44.7,36.5,52.2,43.5,33.3,99,96,84,29.57,29.24,12,5,0,0.49
2013-4-19,39.2,35.7,31.3,32.8,27.7,22.8,93,73,57,30.07,29.42,14,8,0,0.02
2013-4-20,51.1,36.3,24.1,23.5,19.0,12.1,84,54,25,30.40,30.08,9,2,0,0.00
2013-4-21,54.5,43.5,27.5,37.9,29.8,21.6,80,59,46,30.46,30.16,11,6,0,0.00
2013-4-22,66.7,55.4,45.7,42.2,38.6,36.0,71,54,38,30.17,29.89,9,4,0,0.00
2013-4-23,57.4,43.6,37.4,47.1,34.7,28.3,86,71,57,29.96,29.81,10,5,0,0.00
2013-4-24,55.0,43.6,31.3,37.2,26.7,22.6,85,54,31,30.00,29.90,12,4,0,0.01
2013-4-25,54.0,43.6,35.1,37.4,31.5,26.2,87,65,37,30.18,29.91,11,4,0,0.00
2013-4-26,71.8,56.3,34.3,46.7,38.6,24.8,87,53,39,30.16,29.99,16,6,0,0.00
2013-4-27,65.8,57.3,45.3,49.3,46.1,41.4,95,68,49,30.11,29.87,8,3,0,0.00
2013-4-28,75.7,58.0,37.6,47.2,43.6,37.3,99,64,34,29.87,29.64,8,2,0,0.00
2013-4-29,73.0,62.0,51.4,58.4,52.0,45.6,85,70,49,29.74,29.55,9,3,0,0.00
2013-4-30,89.4,74.9,60.1,61.6,55.3,50.0,96,56,27,29.79,29.52,16,6,0,0.28
2013-5-1,83.1,64.2,47.8,54.8,47.9,38.7,73,57,37,30.17,29.80,10,4,0,0.00
2013-5-2,48.2,42.3,36.5,38.5,35.5,32.4,87,77,67,30.26,30.16,11,6,0,0.04
2013-5-3,46.6,39.4,34.5,46.1,37.7,31.6,99,94,83,30.16,29.89,8,4,0,0.86
2013-5-4,69.1,56.0,46.2,59.4,50.9,45.9,99,84,56,29.95,29.86,7,3,0,0.14
2013-5-5,76.5,60.2,43.7,51.2,48.1,43.4,99,69,38,29.98,29.87,9,2,0,0.00
2013-5-6,77.2,61.1,41.5,51.5,45.6,41.2,99,63,29,30.00,29.87,10,2,0,0.00
2013-5-7,83.3,64.4,43.5,51.5,44.3,35.6,99,57,19,29.98,29.85,6,2,0,0.00
2013-5-8,84.6,66.3,45.5,53.0,47.7,44.0,98,57,29,29.94,29.82,6,1,0,0.00
2013-5-9,65.7,59.5,50.4,59.3,56.1,49.3,99,89,64,29.86,29.74,8,3,0,0.56
2013-5-10,58.1,48.9,43.7,49.7,45.7,42.6,99,89,72,29.93,29.80,8,3,0,0.32
2013-5-11,55.4,48.6,38.7,50.2,35.5,24.6,99,65,35,30.00,29.73,19,5,0,0.01
2013-5-12,57.2,46.6,36.3,30.9,26.1,23.9,78,47,29,30.07,29.97,12,5,0,0.00
2013-5-13,68.0,52.2,29.3,38.4,33.1,27.3,99,55,24,30.09,29.77,7,2,0,0.00
2013-5-14,91.9,74.8,57.0,62.4,51.6,38.3,64,46,27,29.76,29.43,13,4,0,0.01
2013-5-15,79.2,70.4,54.7,60.5,46.4,42.1,78,44,28,29.79,29.48,8,3,0,0.00
2013-5-16,88.9,68.4,45.5,54.2,48.8,41.3,99,56,26,29.87,29.75,10,2,0,0.00
2013-5-17,67.5,58.7,49.3,57.8,49.4,35.9,98,73,42,30.01,29.87,10,5,0,0.36
2013-5-18,81.9,67.7,53.6,65.0,57.7,49.5,88,72,52,29.97,29.81,7,3,0,0.00
2013-5-19,87.1,74.4,62.8,67.7,63.0,56.0,93,70,43,29.84,29.52,11,4,0,0.00
2013-5-20,83.8,72.1,61.5,64.7,62.4,57.1,99,74,50,29.68,29.50,11,4,0,0.55
2013-5-21,74.7,68.7,59.4,62.5,59.5,57.8,95,74,59,29.61,29.51,8,3,0,0.00
2013-5-22,74.8,61.2,53.4,62.4,58.3,53.1,99,91,58,29.72,29.54,8,2,0,2.40
2013-5-23,65.7,56.6,46.4,55.0,46.1,37.4,97,71,36,30.24,29.73,9,4,0,0.02
2013-5-24,68.5,54.0,39.0,45.7,40.7,35.0,99,65,35,30.40,30.21,7,2,0,0.00
2013-5-25,59.0,56.4,48.2,43.6,41.2,38.0,80,57,47,30.27,30.22,7,2,0,0.00
2013-5-26,64.4,54.2,45.3,53.8,46.7,39.5,93,77,46,30.24,30.06,7,3,0,0.06
2013-5-27,58.1,54.8,51.1,55.9,51.8,44.5,99,90,69,30.06,29.79,7,4,0,0.00
2013-5-28,71.4,60.8,52.5,67.7,59.0,52.2,99,94,84,29.80,29.60,6,2,0,0.31
2013-5-29,84.2,70.8,62.2,70.2,65.0,61.9,99,84,60,29.82,29.67,7,2,0,0.45
2013-5-30,83.1,71.2,62.6,71.1,66.4,60.4,99,86,62,29.79,29.59,8,4,0,0.30
2013-5-31,79.7,69.9,63.1,66.4,62.9,60.6,94,79,54,29.68,29.58,9,3,0,0.00
2013-6-1,78.1,68.8,59.2,65.6,60.6,56.2,99,77,51,29.67,29.54,7,2,0,0.00
2013-6-2,66.0,56.2,46.8,58.3,45.9,40.3,95,69,48,29.97,29.66,11,4,0,0.00
2013-6-3,72.1,57.5,41.7,50.0,44.4,40.1,99,67,33,30.06,29.92,4,1,0,0.00
2013-6-4,68.4,59.9,53.4,57.6,52.3,48.2,98,77,50,30.10,30.00,8,2,0,0.28
2013-6-5,63.9,57.1,51.3,60.8,55.1,49.9,98,93,82,30.04,29.85,7,3,0,0.16
2013-6-6,60.6,57.1,54.1,56.5,54.5,52.9,98,91,83,29.89,29.84,4,3,0,0.02
2013-6-7,73.4,61.2,53.4,57.1,52.8,48.7,94,75,52,29.94,29.84,4,1,0,0.00
2013-6-8,73.2,63.2,53.4,55.2,52.4,46.8,99,71,40,29.92,29.85,6,2,0,0.00
2013-6-9,77.2,66.0,57.9,65.4,58.3,50.2,99,77,57,29.90,29.70,9,3,0,1.02
2013-6-10,81.3,69.5,59.7,65.4,62.5,59.4,99,81,55,29.79,29.69,5,2,0,0.01
2013-6-11,84.6,71.5,56.5,68.8,63.8,55.7,99,79,56,29.85,29.71,6,2,0,0.00
2013-6-12,80.2,70.9,62.8,70.9,66.8,60.7,96,87,71,29.85,29.55,6,3,0,0.33
2013-6-13,81.5,69.2,57.7,62.8,58.5,55.8,99,72,44,29.98,29.67,9,2,0,0.01
2013-6-14,80.1,67.9,54.5,62.5,58.2,53.1,97,74,47,30.09,29.88,5,2,0,0.00
2013-6-15,83.5,71.1,60.3,70.7,64.0,57.6,98,79,61,29.96,29.72,6,2,0,0.30
2013-6-16,86.5,74.8,61.5,68.8,61.4,52.4,99,69,33,29.84,29.77,7,2,0,0.14
2013-6-17,87.6,72.9,57.7,64.6,59.2,55.6,98,66,38,29.88,29.78,8,2,0,0.00
2013-6-18,75.6,66.5,58.5,59.0,54.6,51.0,84,67,48,30.01,29.87,6,3,0,0.00
2013-6-19,81.1,67.1,51.4,60.6,53.8,49.1,94,66,40,30.08,29.96,5,2,0,0.00
2013-6-20,88.7,74.7,57.6,66.1,59.5,52.1,85,61,39,30.05,29.91,7,2,0,0.00
2013-6-21,79.7,72.5,65.5,69.0,65.3,61.7,98,79,66,30.02,29.73,12,2,0,0.83
2013-6-22,87.3,72.6,65.5,75.2,68.2,64.2,99,87,64,30.02,29.79,8,3,0,3.40
2013-6-23,86.7,74.9,63.3,73.8,67.9,63.0,99,81,56,30.00,29.76,9,3,0,0.32
2013-6-24,79.9,72.6,68.4,69.2,67.1,65.8,96,83,68,29.94,29.72,7,2,0,0.04
2013-6-25,83.8,72.8,65.5,74.8,69.4,65.1,99,90,74,29.89,29.69,5,2,0,1.94
2013-6-26,84.7,75.8,67.6,72.9,70.5,66.4,99,85,64,29.69,29.61,5,2,0,0.74
2013-6-27,88.2,80.2,68.9,72.0,66.7,60.3,98,66,43,29.72,29.62,9,3,0,0.00
2013-6-28,77.4,69.8,63.3,65.5,61.7,59.0,90,76,57,29.68,29.57,10,3,0,0.09
2013-6-29,72.9,67.1,62.4,63.8,61.6,58.8,95,83,67,29.78,29.56,7,2,0,0.32
2013-6-30,78.8,70.4,56.7,59.7,55.4,51.0,90,61,43,30.00,29.78,8,2,0,0.00
2013-7-1,81.0,69.0,53.1,59.1,54.6,50.9,95,64,39,30.08,29.99,8,2,0,0.00
2013-7-2,77.0,66.1,54.7,59.1,55.1,46.7,96,71,39,30.07,29.98,5,2,0,0.00
2013-7-3,75.7,63.0,51.8,62.6,56.5,49.7,97,81,63,30.05,29.93,4,1,0,0.00
2013-7-4,84.6,71.3,55.9,63.8,59.8,54.7,97,70,43,30.01,29.91,4,1,0,0.00
2013-7-5,86.2,75.3,61.7,66.6,63.7,59.5,94,69,48,29.98,29.89,7,2,0,0.00
2013-7-6,87.4,75.0,64.6,68.7,64.2,60.3,88,70,51,29.96,29.86,5,2,0,0.00
2013-7-8,87.1,81.1,75.6,75.5,74.3,73.2,93,81,67,29.91,29.85,2,1,0,0.00
2013-7-9,87.3,78.3,71.6,74.8,72.8,70.0,97,84,64,29.91,29.74,7,2,0,0.20
2013-7-10,80.6,73.7,61.2,71.7,62.4,57.5,94,70,47,29.97,29.77,8,2,0,0.00
2013-7-11,83.5,68.7,56.1,63.3,58.9,54.0,98,74,45,30.07,29.97,5,1,0,0.00
2013-7-12,84.7,70.8,56.7,63.8,59.7,54.9,95,71,43,30.10,29.99,5,1,0,0.00
2013-7-13,84.7,71.1,60.6,67.6,61.9,57.1,92,74,55,30.09,30.00,5,1,0,0.00
2013-7-14,88.9,75.2,59.4,70.1,64.6,57.2,94,72,50,30.15,30.08,6,1,0,0.00
2013-7-15,92.1,79.2,66.7,74.3,70.2,65.1,96,76,52,30.22,30.12,4,1,0,0.00
2013-7-16,92.5,82.3,71.8,76.1,73.3,69.6,96,76,55,30.22,30.15,4,2,0,0.00
2013-7-17,94.6,83.6,72.1,76.7,73.6,70.6,96,74,53,30.24,30.10,5,2,0,0.00
2013-7-18,94.5,83.5,71.6,75.2,72.5,70.1,96,71,52,30.11,29.82,7,2,0,0.00
2013-7-19,93.4,83.2,69.6,75.0,69.8,63.9,82,65,48,29.81,29.67,9,4,0,0.00
2013-7-20,88.0,74.6,61.5,66.9,64.0,59.2,94,72,46,29.88,29.78,5,2,0,0.00
2013-7-21,83.8,68.8,61.9,70.2,62.3,58.6,90,80,60,29.90,29.79,8,3,0,1.60
2013-7-22,87.6,72.6,63.1,74.0,66.2,61.6,97,82,58,29.82,29.58,6,2,0,0.48
2013-7-23,76.8,69.2,57.4,67.2,58.1,53.2,94,70,48,29.94,29.67,9,3,0,0.00
2013-7-24,78.3,64.1,52.3,58.0,53.8,50.0,94,72,44,30.03,29.94,4,1,0,0.00
2013-7-25,80.6,66.7,55.4,67.8,60.1,52.2,95,81,60,30.01,29.90,5,1,0,0.50
2013-7-26,80.1,68.6,62.2,69.3,60.8,54.0,97,78,47,29.90,29.78,9,2,0,0.17
2013-7-27,63.0,57.1,53.6,52.7,47.6,42.9,81,71,59,29.95,29.83,8,4,0,0.00
2013-7-28,68.9,59.6,52.2,55.1,50.7,46.5,87,73,59,29.98,29.81,7,3,0,0.00
2013-7-29,78.3,64.6,52.0,61.7,55.7,50.3,95,75,53,30.09,29.98,5,2,0,0.00
2013-7-30,73.0,66.0,57.7,62.6,59.6,55.9,95,81,65,30.11,30.00,5,2,0,0.00
2013-7-31,79.7,70.4,62.1,67.1,62.9,60.0,94,78,60,30.02,29.89,7,2,0,0.00
2013-8-1,83.5,68.5,56.3,62.0,57.7,54.2,97,72,39,29.96,29.83,8,2,0,0.03
2013-8-2,82.0,71.1,62.4,66.8,60.7,55.4,96,72,42,29.92,29.76,6,2,0,0.18
2013-8-3,79.7,66.6,52.2,59.1,54.6,49.9,93,69,39,30.10,29.92,7,2,0,0.00
2013-8-4,77.9,64.2,50.5,62.1,55.2,48.6,95,75,47,30.18,30.04,4,1,0,0.00
2013-8-5,72.5,64.7,57.0,65.8,60.7,54.6,96,87,69,30.04,29.77,7,1,0,0.27
2013-8-6,85.3,75.0,65.5,71.0,67.9,64.3,98,80,56,29.80,29.69,6,2,0,0.00
2013-8-7,80.1,73.7,64.2,71.1,64.7,60.6,96,75,56,29.93,29.67,8,2,0,0.00
2013-8-8,82.8,69.3,57.2,63.7,60.2,55.3,95,75,47,29.98,29.89,4,1,0,0.00
2013-8-9,81.5,69.5,60.3,64.1,60.5,56.9,95,75,46,30.02,29.91,5,1,0,0.00
2013-8-10,79.2,66.0,53.8,59.3,55.9,52.1,98,73,45,30.12,30.01,6,2,0,0.00
2013-8-11,78.1,65.8,55.2,65.9,61.1,52.9,97,86,65,30.09,29.95,4,1,0,0.21
2013-8-12,82.4,71.4,63.5,67.4,62.9,57.0,97,77,45,29.96,29.84,6,2,0,0.01
2013-8-13,75.6,64.4,53.8,57.2,51.4,47.9,90,65,44,30.11,29.94,9,2,0,0.00
2013-8-14,77.0,61.4,48.9,57.2,52.2,46.7,96,75,44,30.18,30.05,4,1,0,0.00
2013-8-15,79.7,64.0,51.8,60.0,54.7,50.0,96,75,41,30.12,30.02,6,1,0,0.00
2013-8-16,84.4,68.1,55.6,61.2,56.9,53.9,96,72,38,30.14,30.08,5,1,0,0.00
2013-8-17,84.2,67.5,52.5,62.2,56.4,50.8,98,72,39,30.20,30.08,5,1,0,0.00
2013-8-18,90.3,68.3,51.3,62.4,57.3,49.9,97,72,34,30.18,30.02,5,1,0,0.00
2013-8-19,84.2,69.1,54.7,67.7,61.4,53.9,98,79,49,30.04,29.94,6,1,0,0.00
2013-8-20,90.1,75.2,60.1,69.3,65.3,59.5,98,74,47,30.00,29.90,7,2,0,0.00
2013-8-21,91.6,80.4,72.1,73.7,70.1,65.4,94,72,55,29.95,29.84,9,3,0,0.01
2013-8-22,81.1,72.0,66.0,71.4,68.9,64.7,99,91,68,30.07,29.89,12,2,0,2.73
2013-8-23,88.2,72.4,62.8,66.3,63.1,58.7,99,76,43,30.13,30.04,6,2,0,0.00
2013-8-24,85.1,72.3,57.6,72.0,64.2,55.1,92,76,63,30.18,30.06,6,2,0,0.00
2013-8-25,93.7,80.3,72.3,75.2,70.4,67.6,86,73,55,30.12,30.00,7,4,0,0.00
2013-8-26,97.9,81.9,71.1,80.0,72.4,66.2,86,74,55,30.04,29.87,5,2,0,0.00
2013-8-27,98.2,82.7,73.0,78.8,74.0,69.6,93,77,52,29.89,29.70,8,2,0,0.00
2013-8-28,85.3,76.8,69.8,74.2,72.3,68.6,99,87,68,29.98,29.76,5,2,0,0.00
2013-8-29,97.5,77.5,65.7,74.8,70.0,64.8,99,80,47,30.01,29.87,5,1,0,0.00
2013-8-30,95.0,80.5,69.4,82.0,73.3,67.9,97,80,60,29.87,29.68,7,2,0,0.13
2013-8-31,92.7,75.1,66.9,71.4,67.2,63.0,96,78,49,29.81,29.70,7,2,0,0.00
2013-9-1,89.2,72.9,62.1,73.5,66.0,59.8,99,81,42,29.80,29.64,6,2,0,0.00
2013-9-2,70.9,63.0,53.6,60.5,57.1,52.4,98,82,63,29.96,29.79,6,2,0,0.00
2013-9-3,78.1,60.6,48.9,59.4,53.7,47.8,99,81,50,30.07,29.94,5,1,0,0.00
2013-9-4,88.3,67.5,49.6,70.4,60.7,49.3,99,82,53,30.07,29.98,4,1,0,0.00
2013-9-5,82.8,70.3,61.5,66.7,63.1,56.0,98,79,56,30.19,30.04,6,3,0,0.00
2013-9-6,94.1,72.4,56.7,68.8,60.8,51.6,88,69,44,30.16,29.88,6,2,0,0.00
2013-9-7,98.4,78.9,65.7,75.9,69.0,62.0,95,73,45,29.89,29.78,5,2,0,0.00
2013-9-8,74.8,69.8,64.9,69.3,64.6,59.8,87,83,79,30.01,29.87,7,4,0,0.00
2013-9-9,101.7,79.2,66.4,79.3,69.9,64.2,94,75,45,29.87,29.66,6,2,0,0.00
2013-9-10,100.6,83.6,73.6,69.1,66.6,63.5,86,59,35,29.89,29.73,11,2,0,0.00
2013-9-11,84.6,73.0,65.8,70.6,67.6,64.2,97,84,58,30.04,29.89,6,1,0,0.63
2013-9-12,76.3,66.0,57.4,64.9,55.0,47.7,98,71,41,30.10,29.92,9,3,0,0.00
2013-9-13,76.5,56.7,43.7,47.7,43.5,37.8,93,66,26,30.20,30.07,6,2,0,0.00
2013-9-14,81.0,57.8,40.1,52.8,46.4,38.5,99,70,32,30.13,29.90,6,1,0,0.00
2013-9-15,65.8,57.7,54.3,58.0,54.6,49.2,97,90,64,30.17,29.89,5,1,0,0.91
2013-9-16,71.1,56.2,46.9,54.4,46.9,40.9,93,73,43,30.37,30.18,6,3,0,0.00
2013-9-17,68.5,56.8,42.6,57.3,51.2,41.5,99,83,61,30.30,29.99,5,2,0,0.00
2013-9-18,84.6,70.2,61.7,69.0,62.7,56.3,87,78,56,29.99,29.77,7,2,0,0.00
2013-9-19,91.8,72.4,67.3,75.0,68.7,64.8,96,89,57,29.79,29.62,10,2,0,1.05
2013-9-20,67.8,64.3,54.9,66.3,59.7,52.3,96,85,68,29.80,29.65,14,3,0,0.00
2013-9-21,69.1,55.4,45.3,52.6,48.7,43.1,96,80,49,29.90,29.79,7,2,0,0.00
2013-9-22,72.1,54.6,44.4,52.7,48.1,43.2,98,81,49,30.03,29.90,5,2,0,0.00
2013-9-23,74.8,57.2,44.1,55.1,49.6,43.1,97,78,49,30.05,29.92,6,2,0,0.00
2013-9-24,77.0,58.9,46.4,55.5,50.7,44.7,97,77,44,29.98,29.85,6,2,0,0.00
2013-9-25,77.5,58.1,46.0,57.9,51.5,44.8,98,81,45,29.96,29.84,7,1,0,0.00
2013-9-26,82.4,60.9,47.3,59.6,53.5,46.8,99,80,43,30.01,29.91,5,2,0,0.00
2013-9-27,85.5,66.5,50.4,58.9,53.2,48.2,94,66,33,30.05,29.92,7,2,0,0.00
2013-9-28,81.5,64.7,52.5,65.5,56.8,51.1,96,77,55,29.93,29.72,10,3,0,0.31
2013-9-29,79.3,57.5,47.3,56.2,49.5,45.5,97,79,35,30.02,29.89,4,1,0,0.01
2013-9-30,79.3,59.3,44.8,53.4,48.3,43.2,96,71,38,29.91,29.71,7,2,0,0.00
2013-10-1,86.0,67.4,53.2,63.4,58.8,51.2,94,76,46,29.91,29.74,6,2,0,0.00
2013-10-2,82.4,61.2,46.4,58.9,49.0,42.3,97,71,27,30.07,29.87,5,1,0,0.00
2013-10-3,77.4,66.7,56.8,68.8,61.0,49.5,97,82,68,29.88,29.72,6,2,0,0.01
2013-10-4,70.0,65.9,63.9,67.0,64.3,63.0,98,95,89,29.90,29.78,7,3,0,0.32
2013-10-5,76.6,65.3,53.2,70.9,62.5,47.8,97,91,78,29.84,29.65,6,3,0,0.02
2013-10-6,59.0,49.5,39.4,47.0,42.9,37.5,97,79,55,29.72,29.61,6,2,0,0.02
2013-10-7,72.1,53.4,42.3,51.3,45.3,39.9,95,77,37,30.02,29.68,8,2,0,0.01
2013-10-8,81.3,57.5,40.6,54.2,45.6,39.3,97,70,31,30.08,29.96,8,2,0,0.00
2013-10-9,77.9,58.8,45.7,54.0,47.7,43.7,94,71,31,30.13,30.02,5,2,0,0.00
2013-10-10,79.3,56.7,39.6,55.4,47.5,38.0,98,76,37,30.10,29.94,5,1,0,0.00
2013-10-11,78.4,62.8,49.3,60.8,54.3,47.4,95,76,47,29.97,29.78,10,3,0,0.00
2013-10-12,70.7,61.5,40.8,58.2,49.0,37.2,87,65,38,30.12,29.78,7,3,0,0.00
2013-10-13,70.5,47.3,33.6,44.5,36.4,32.0,96,72,26,30.38,30.13,8,1,0,0.00
2013-10-14,64.0,47.9,31.5,45.1,39.4,30.2,96,75,48,30.39,30.03,8,3,0,0.00
2013-10-15,61.9,53.6,48.4,57.0,48.3,43.5,93,83,68,30.02,29.67,8,4,0,0.27
2013-10-16,52.7,49.7,47.3,49.2,46.2,44.8,94,88,81,29.88,29.70,8,2,0,0.01
2013-10-17,61.3,48.3,36.3,45.7,41.1,33.9,94,78,44,29.86,29.73,5,1,0,0.00
2013-10-18,49.6,43.8,37.0,43.1,38.5,34.3,94,82,61,29.88,29.73,8,2,0,0.00
2013-10-19,53.4,40.4,29.3,42.0,35.6,27.3,96,84,48,29.85,29.65,7,2,0,0.05
2013-10-20,51.1,41.2,28.2,45.7,37.5,26.4,96,87,70,29.79,29.61,9,2,0,0.02
2013-10-21,48.0,38.4,25.2,41.8,29.1,21.6,86,70,50,29.92,29.71,16,4,0,0.00
2013-10-22,52.7,34.2,19.8,33.0,26.2,17.1,93,74,46,29.94,29.84,5,1,0,0.00
2013-10-23,42.6,34.9,24.1,32.6,27.6,22.1,94,76,51,29.99,29.92,7,2,0,0.00
2013-10-24,48.9,36.4,25.7,29.0,25.7,22.6,88,66,40,30.27,29.99,9,3,0,0.00
2013-10-25,54.3,39.9,21.2,33.7,27.2,19.0,94,64,38,30.32,29.85,13,4,0,0.00
2013-10-26,53.2,45.2,32.5,37.5,31.1,28.5,85,59,41,30.03,29.73,13,4,0,0.00
2013-10-27,60.6,39.2,22.3,34.3,28.3,20.1,94,70,31,30.01,29.81,8,2,0,0.00
2013-10-28,44.1,40.1,28.9,33.8,31.7,27.1,93,72,62,30.36,29.98,10,5,0,0.00
2013-10-29,53.2,44.3,36.9,41.9,36.3,29.3,84,73,64,30.34,30.05,7,4,0,0.00
2013-10-30,55.8,50.2,42.3,52.9,47.4,38.7,96,90,84,30.05,29.64,7,2,0,0.00
2013-10-31,60.1,53.2,43.0,58.7,51.3,39.7,97,93,87,29.62,29.25,8,2,0,0.52
2013-11-1,48.6,43.1,35.4,43.5,39.8,34.1,96,88,82,29.70,29.30,7,3,0,0.01
2013-11-2,51.3,39.5,26.6,38.8,34.0,24.6,97,82,56,30.11,29.71,9,2,0,0.00
2013-11-3,54.1,39.2,22.6,38.2,30.5,20.4,96,73,47,30.23,30.07,10,3,0,0.00
2013-11-4,54.0,49.0,44.1,46.0,40.2,35.3,84,72,61,30.09,29.94,11,5,0,0.00
2013-11-5,54.0,50.0,45.0,52.0,46.7,42.1,95,89,79,30.18,29.74,11,3,0,0.90
2013-11-6,55.4,42.5,29.8,53.7,36.1,22.9,94,79,52,30.15,29.64,12,5,0,0.39
2013-11-7,45.0,32.0,22.5,32.8,27.0,19.5,94,82,59,30.21,30.12,7,2,0,0.00
2013-11-8,48.4,42.7,23.2,35.6,31.3,21.0,92,65,52,30.21,29.70,10,5,0,0.00
2013-11-9,53.1,46.9,37.6,41.9,36.2,26.1,78,66,51,30.10,29.68,19,7,0,0.00
2013-11-10,52.3,42.4,34.9,32.4,30.4,27.1,78,63,45,30.30,30.09,9,4,0,0.00
2013-11-11,44.1,32.4,18.9,34.1,24.9,13.0,90,74,64,30.58,30.00,9,4,0,0.08
2013-11-12,35.1,22.4,13.6,16.4,13.5,9.9,85,69,45,30.73,30.53,9,3,0,0.00
2013-11-13,46.9,31.3,14.2,22.0,15.9,10.3,85,56,36,30.54,30.00,11,4,0,0.00
2013-11-14,50.5,40.6,32.9,32.8,26.3,18.7,71,57,45,30.00,29.81,10,3,0,0.00
2013-11-15,61.0,43.2,27.0,40.9,33.3,24.2,93,70,47,29.88,29.78,6,2,0,0.00
2013-11-16,59.9,49.3,38.5,55.4,45.8,34.1,92,88,82,29.78,29.34,14,5,0,0.11
2013-11-17,59.0,49.8,38.5,54.7,45.9,31.9,96,87,77,29.69,29.13,15,6,0,1.16
2013-11-18,41.9,33.7,22.1,31.9,25.8,18.8,89,73,52,30.24,29.69,14,6,0,0.00
2013-11-19,43.7,31.1,16.7,29.9,23.2,14.0,93,74,47,30.31,30.14,8,3,0,0.00
2013-11-20,42.3,36.9,34.2,34.7,30.8,27.7,90,79,58,30.16,29.99,12,5,0,0.07
2013-11-21,42.8,39.6,36.3,37.6,35.9,32.5,92,87,81,30.25,30.03,6,2,0,0.00
2013-11-22,39.4,30.5,22.3,32.5,22.3,15.0,87,72,44,30.47,30.24,9,4,0,0.00
2013-11-23,24.3,17.4,7.9,15.7,6.3,2.5,82,62,45,30.74,30.41,14,5,0,0.00
2013-11-24,30.4,17.8,3.7,10.3,4.9,-0.3,87,60,33,30.70,30.22,10,4,0,0.00
2013-11-25,34.9,27.7,22.1,27.1,20.9,8.2,89,77,46,30.21,29.96,14,5,0,0.00
2013-11-26,33.8,25.6,12.9,27.1,16.2,3.1,85,68,47,30.23,29.96,13,4,0,0.00
2013-11-27,32.7,19.1,6.6,14.3,9.0,2.9,86,65,42,30.28,30.13,6,3,0,0.00
2013-11-28,35.8,25.5,16.2,18.1,14.7,12.0,84,63,48,30.47,30.08,7,2,0,0.00
2013-11-29,33.6,22.0,6.6,21.9,14.6,2.6,89,74,53,30.58,30.27,7,2,0,0.00
2013-11-30,46.9,33.5,26.4,32.2,26.2,21.5,90,75,55,30.26,29.96,7,2,0,0.00
2013-12-1,45.9,32.6,22.6,29.9,25.9,20.1,93,78,52,30.11,29.92,4,1,0,0.00
2013-12-2,41.4,30.9,20.8,33.7,27.4,18.6,94,87,73,29.92,29.63,7,2,0,0.08
2013-12-3,38.3,36.1,33.8,37.3,35.0,32.3,97,96,94,29.67,29.57,7,4,0,0.03
2013-12-4,48.6,38.1,32.7,47.2,36.7,28.1,97,94,83,29.66,29.36,14,4,0,0.03
2013-12-5,32.5,19.1,11.1,27.9,12.1,5.6,84,74,63,30.29,29.63,14,6,0,0.00
2013-12-6,18.5,10.1,4.8,5.0,2.6,0.7,85,72,52,30.56,30.27,9,4,0,0.00
2013-12-7,18.3,6.3,-1.5,2.4,-0.9,-4.9,85,73,44,30.71,30.56,6,2,0,0.00
2013-12-8,17.1,13.2,6.6,13.6,8.3,1.3,88,81,67,30.57,29.93,9,4,0,0.00
2013-12-9,16.7,7.4,-9.8,12.0,1.8,-13.3,89,78,53,30.18,29.91,10,3,0,0.00
2013-12-10,18.9,8.6,-10.8,10.4,1.6,-14.3,86,74,52,30.21,29.86,11,4,0,0.00
2013-12-11,14.2,6.8,-6.3,10.8,-1.4,-11.1,87,70,43,30.52,30.20,8,3,0,0.00
2013-12-12,24.4,11.1,-6.5,11.7,3.3,-10.0,85,71,52,30.46,30.13,7,3,0,0.00
2013-12-13,24.6,18.2,10.0,17.6,12.9,6.4,86,79,68,30.14,30.04,11,5,0,0.00
2013-12-14,29.7,21.0,17.2,20.8,16.2,13.2,85,82,69,30.12,29.93,9,4,0,0.00
2013-12-15,19.4,11.0,5.4,13.0,2.0,-5.4,85,67,47,30.11,29.92,14,5,0,0.00
2013-12-16,16.7,8.5,-4.4,12.7,2.1,-8.9,88,75,49,30.11,29.95,5,1,0,0.00
2013-12-17,37.0,24.9,15.8,27.6,18.1,8.8,89,76,52,30.07,29.86,12,4,0,0.00
2013-12-18,42.8,21.9,3.7,22.9,14.0,0.5,89,73,42,30.08,29.67,8,2,0,0.01
2013-12-19,31.8,24.7,15.3,25.1,20.4,12.7,91,84,68,29.91,29.73,10,4,0,0.00
2013-12-20,25.5,22.8,21.0,21.6,19.6,17.5,92,87,84,29.85,29.75,9,4,0,0.00
2013-12-21,29.3,25.7,23.0,25.0,22.9,21.0,93,89,83,29.84,29.67,10,3,0,0.00
2013-12-22,33.6,25.4,19.8,24.3,21.8,17.4,92,86,67,30.08,29.68,7,3,0,0.00
2013-12-23,22.3,7.7,-5.4,19.6,2.1,-8.7,89,78,59,30.46,30.09,10,4,0,0.00
2013-12-24,22.8,0.5,-18.6,7.8,-5.2,-21.5,87,77,52,30.54,30.22,6,2,0,0.00
2013-12-25,25.7,19.3,10.8,20.1,15.3,7.5,88,84,79,30.21,30.03,6,3,0,0.00
2013-12-26,33.1,21.3,8.4,23.5,16.2,5.3,88,81,64,30.17,30.07,6,1,0,0.00
2013-12-27,40.3,26.8,6.3,31.0,20.8,3.5,90,79,57,30.20,29.95,9,2,0,0.23
2013-12-28,49.3,34.2,16.3,33.7,27.1,14.1,93,77,54,29.99,29.68,7,2,0,0.16
2013-12-29,38.1,18.4,-5.4,31.9,11.9,-12.9,85,75,67,30.26,29.67,13,6,0,0.00
2013-12-30,9.9,-4.3,-18.0,-1.6,-10.9,-21.6,86,74,41,30.32,30.17,5,1,0,0.00
2013-12-31,10.0,-0.2,-13.5,3.6,-4.4,-16.9,90,82,68,30.33,30.17,5,1,0,0.00
2014-1-1,13.3,6.1,0.7,1.0,-3.1,-7.4,72,65,52,30.37,30.26,7,4,0,0.00
2014-1-2,16.2,5.4,-14.3,3.1,-2.5,-17.3,89,70,52,30.43,30.25,7,3,0,0.00